createdAt,value
2023-01-13T00:03:21.770Z,99551.44
2023-01-13T00:08:25.445Z,99557.81
2023-01-13T00:13:28.910Z,99543.13
2023-01-13T00:18:34.081Z,99565.25
2023-01-13T00:23:37.701Z,99545.09
2023-01-13T00:28:41.135Z,99545.63
2023-01-13T00:33:46.256Z,99542.47
2023-01-13T00:38:50.212Z,99519.81
2023-01-13T00:43:54.063Z,99507.69
2023-01-13T00:48:58.862Z,99509.34
2023-01-13T00:54:02.487Z,99496.50
2023-01-13T00:59:06.003Z,99498.31
2023-01-13T01:04:11.140Z,99502.22
2023-01-13T01:09:15.573Z,99503.03
2023-01-13T01:14:18.970Z,99499.47
2023-01-13T01:19:23.793Z,99514.28
2023-01-13T01:24:27.178Z,99521.88
2023-01-13T01:29:30.652Z,99524.50
2023-01-13T01:34:35.698Z,99509.16
2023-01-13T01:39:39.047Z,99519.97
2023-01-13T01:45:01.322Z,99517.16
2023-01-13T01:50:06.923Z,99508.47
2023-01-13T01:55:13.120Z,99502.38
2023-01-13T02:00:16.877Z,99501.59
2023-01-13T02:05:21.838Z,99489.69
2023-01-13T02:10:28.022Z,99498.88
2023-01-13T02:15:36.414Z,99504.41
2023-01-13T02:20:49.281Z,99502.09
2023-01-13T02:26:06.680Z,99511.53
2023-01-13T02:31:33.737Z,99497.75
2023-01-13T02:36:40.753Z,99494.56
2023-01-13T02:42:07.049Z,99519.19
2023-01-13T02:47:16.699Z,99520.75
2023-01-13T02:52:23.993Z,99536.41
2023-01-13T02:57:27.679Z,99536.06
2023-01-13T03:02:32.564Z,99559.84
2023-01-13T03:07:47.779Z,99559.44
2023-01-13T03:12:58.764Z,99564.94
2023-01-13T03:18:09.988Z,99552.78
2023-01-13T03:23:18.543Z,99548.81
2023-01-13T03:28:26.414Z,99538.69
2023-01-13T03:33:34.318Z,99547.34
2023-01-13T03:38:39.501Z,99562.16
2023-01-13T03:44:02.955Z,99570.59
2023-01-13T03:49:08.505Z,99559.97
2023-01-13T03:54:13.165Z,99562.09
2023-01-13T03:59:21.769Z,99549.53
2023-01-13T04:04:30.491Z,99557.69
2023-01-13T04:09:38.330Z,99553.53
2023-01-13T04:14:42.103Z,99536.09
2023-01-13T04:19:46.846Z,99541.56
2023-01-13T04:24:50.252Z,99540.78
2023-01-13T04:29:53.706Z,99551.91
2023-01-13T04:34:58.460Z,99536.59
2023-01-13T04:40:01.867Z,99544.38
2023-01-13T04:45:06.002Z,99550.25
2023-01-13T04:50:12.292Z,99543.44
2023-01-13T04:55:16.577Z,99556.44
2023-01-13T05:00:22.083Z,99540.41
2023-01-13T05:05:27.347Z,99552.75
2023-01-13T05:10:30.893Z,99543.16
2023-01-13T05:15:52.114Z,99538.47
2023-01-13T05:20:56.917Z,99544.47
2023-01-13T05:26:00.285Z,99552.94
2023-01-13T05:31:03.702Z,99549.78
2023-01-13T05:36:09.558Z,99559.28
2023-01-13T05:41:30.541Z,99539.13
2023-01-13T05:46:33.926Z,99524.69
2023-01-13T05:51:38.827Z,99516.97
2023-01-13T05:56:42.240Z,99526.72
2023-01-13T06:01:45.835Z,99539.34
2023-01-13T06:06:50.602Z,99544.06
2023-01-13T06:11:54.030Z,99540.09
2023-01-13T06:16:57.444Z,99553.56
2023-01-13T06:22:07.180Z,99545.56
2023-01-13T06:27:10.767Z,99555.44
2023-01-13T06:32:18.067Z,99538.16
2023-01-13T06:37:25.400Z,99550.41
2023-01-13T06:42:47.184Z,99544.00
2023-01-13T06:47:50.635Z,99553.31
2023-01-13T06:52:55.365Z,99546.94
2023-01-13T06:57:59.154Z,99528.03
2023-01-13T07:03:07.282Z,99548.66
2023-01-13T07:08:12.243Z,99550.19
2023-01-13T07:13:33.208Z,99568.13
2023-01-13T07:18:36.979Z,99585.31
2023-01-13T07:23:42.336Z,99564.56
2023-01-13T07:28:45.693Z,99579.56
2023-01-13T07:33:49.245Z,99587.06
2023-01-13T07:38:54.926Z,99596.41
2023-01-13T07:43:58.442Z,99591.09
2023-01-13T07:49:01.805Z,99591.63
2023-01-13T07:54:07.014Z,99593.03
2023-01-13T07:59:10.375Z,99594.53
2023-01-13T08:04:14.022Z,99614.09
2023-01-13T08:09:18.703Z,99592.16
2023-01-13T08:14:22.299Z,99593.25
2023-01-13T08:19:25.683Z,99597.94
2023-01-13T08:24:30.348Z,99584.41
2023-01-13T08:29:33.733Z,99607.59
2023-01-13T08:34:37.747Z,99609.63
2023-01-13T08:39:42.402Z,99613.13
2023-01-13T08:44:45.782Z,99623.09
2023-01-13T08:49:49.283Z,99624.22
2023-01-13T08:54:54.068Z,99618.22
2023-01-13T08:59:57.513Z,99618.19
2023-01-13T09:05:02.828Z,99611.41
2023-01-13T09:10:09.775Z,99609.53
2023-01-13T09:15:13.482Z,99618.38
2023-01-13T09:20:16.898Z,99628.88
2023-01-13T09:25:21.558Z,99617.72
2023-01-13T09:30:24.983Z,99639.84
2023-01-13T09:35:28.401Z,99625.25
2023-01-13T09:40:33.153Z,99637.63
2023-01-13T09:45:41.291Z,99631.63
2023-01-13T09:51:00.709Z,99630.34
2023-01-13T09:56:06.515Z,99635.97
2023-01-13T10:01:17.427Z,99645.50
2023-01-13T10:06:25.187Z,99636.81
2023-01-13T10:11:50.288Z,99612.34
2023-01-13T10:17:06.916Z,99626.00
2023-01-13T10:22:24.457Z,99616.88
2023-01-13T10:27:34.423Z,99614.19
2023-01-13T10:32:37.754Z,99624.03
2023-01-13T10:37:41.151Z,99624.72
2023-01-13T10:42:45.856Z,99624.88
2023-01-13T10:48:06.796Z,99622.94
2023-01-13T10:53:23.428Z,99631.47
2023-01-13T10:58:28.475Z,99630.44
2023-01-13T11:03:41.407Z,99641.78
2023-01-13T11:08:46.018Z,99637.19
2023-01-13T11:14:09.109Z,99650.19
2023-01-13T11:19:17.072Z,99643.19
2023-01-13T11:24:27.024Z,99652.22
2023-01-13T11:29:38.822Z,99651.28
2023-01-13T11:34:43.301Z,99654.75
2023-01-13T11:39:53.691Z,99643.81
2023-01-13T11:45:05.791Z,99648.16
2023-01-13T11:50:16.108Z,99632.16
2023-01-13T11:55:29.828Z,99647.19
2023-01-13T12:00:53.343Z,99645.50
2023-01-13T12:06:04.120Z,99630.97
2023-01-13T12:11:14.418Z,99639.06
2023-01-13T12:16:24.898Z,99650.53
2023-01-13T12:21:30.137Z,99650.22
2023-01-13T12:26:36.028Z,99648.09
2023-01-13T12:31:41.511Z,99645.00
2023-01-13T12:36:53.588Z,99654.28
2023-01-13T12:42:17.212Z,99658.56
2023-01-13T12:47:36.304Z,99646.13
2023-01-13T12:52:44.651Z,99645.53
2023-01-13T12:58:13.616Z,99641.78
2023-01-13T13:03:33.668Z,99646.94
2023-01-13T13:08:47.701Z,99645.81
2023-01-13T13:13:51.269Z,99636.78
2023-01-13T13:19:34.521Z,99643.88
2023-01-13T13:24:38.014Z,99641.16
2023-01-13T13:29:46.692Z,99656.97
2023-01-13T13:34:58.181Z,99680.50
2023-01-13T13:40:21.073Z,99691.91
2023-01-13T13:45:43.812Z,99712.88
2023-01-13T13:50:50.415Z,99719.00
2023-01-13T13:55:56.774Z,99737.19
2023-01-13T14:01:01.155Z,99730.00
2023-01-13T14:06:07.805Z,99719.53
2023-01-13T14:11:26.524Z,99729.66
2023-01-13T14:16:30.097Z,99735.97
2023-01-13T14:21:34.895Z,99725.31
2023-01-13T14:26:39.265Z,99747.44
2023-01-13T14:31:43.378Z,99745.88
2023-01-13T14:36:51.012Z,99762.81
2023-01-13T14:41:54.498Z,99749.59
2023-01-13T14:47:00.394Z,99765.84
2023-01-13T14:52:13.524Z,99763.44
2023-01-13T14:57:27.677Z,99760.25
2023-01-13T15:02:50.206Z,99783.91
2023-01-13T15:07:56.573Z,99787.16
2023-01-13T15:13:02.081Z,99784.72
2023-01-13T15:18:13.800Z,99794.56
2023-01-13T15:23:18.704Z,99796.66
2023-01-13T15:28:23.470Z,99821.03
2023-01-13T15:33:27.041Z,99809.34
2023-01-13T15:38:32.250Z,99825.88
2023-01-13T15:43:53.346Z,99829.75
2023-01-13T15:48:57.724Z,99835.47
2023-01-13T15:54:03.739Z,99840.94
2023-01-13T15:59:14.765Z,99856.31
2023-01-13T16:04:18.179Z,99872.75
2023-01-13T16:09:23.095Z,99876.69
2023-01-13T16:14:26.722Z,99873.59
2023-01-13T16:19:30.864Z,99895.63
2023-01-13T16:24:36.026Z,99905.38
2023-01-13T16:29:39.418Z,99904.50
2023-01-13T16:34:43.183Z,99912.34
2023-01-13T16:39:48.005Z,99913.03
2023-01-13T16:44:54.290Z,99919.22
2023-01-13T16:49:57.937Z,99928.78
2023-01-13T16:55:02.888Z,99944.00
2023-01-13T17:00:07.402Z,99939.00
2023-01-13T17:05:11.893Z,99952.91
2023-01-13T17:10:18.649Z,99951.16
2023-01-13T17:15:22.402Z,99969.91
2023-01-13T17:20:26.035Z,99966.69
2023-01-13T17:25:30.866Z,99972.78
2023-01-13T17:30:34.222Z,99975.50
2023-01-13T17:35:40.002Z,100007.84
2023-01-13T17:40:47.617Z,100016.88
2023-01-13T17:45:51.250Z,100011.47
2023-01-13T17:50:55.161Z,100016.31
2023-01-13T17:56:00.144Z,100020.56
2023-01-13T18:01:08.353Z,100017.84
2023-01-13T18:06:16.931Z,100019.69
2023-01-13T18:11:23.604Z,100011.41
2023-01-13T18:16:30.513Z,100018.44
2023-01-13T18:21:51.665Z,100048.75
2023-01-13T18:27:19.658Z,100047.59
2023-01-13T18:32:24.383Z,100061.63
2023-01-13T18:37:28.418Z,100077.22
2023-01-13T18:42:53.856Z,100068.28
2023-01-13T18:48:00.268Z,100081.94
2023-01-13T18:53:04.110Z,100080.97
2023-01-13T18:58:09.152Z,100080.00
2023-01-13T19:03:12.935Z,100088.53
2023-01-13T19:08:16.460Z,100100.50
2023-01-13T19:13:22.008Z,100108.38
2023-01-13T19:18:25.972Z,100119.25
2023-01-13T19:23:29.609Z,100133.19
2023-01-13T19:28:35.106Z,100129.47
2023-01-13T19:33:41.692Z,100132.44
2023-01-13T19:38:45.408Z,100142.88
2023-01-13T19:44:08.078Z,100143.06
2023-01-13T19:49:12.167Z,100144.88
2023-01-13T19:54:15.818Z,100169.78
2023-01-13T19:59:22.292Z,100167.41
2023-01-13T20:04:33.813Z,100165.91
2023-01-13T20:09:37.365Z,100166.16
2023-01-13T20:14:43.354Z,100180.97
2023-01-13T20:19:47.142Z,100183.44
2023-01-13T20:24:54.975Z,100197.25
2023-01-13T20:30:00.144Z,100195.34
2023-01-13T20:35:03.542Z,100193.56
2023-01-13T20:40:08.495Z,100206.88
2023-01-13T20:45:20.480Z,100223.78
2023-01-13T20:50:24.326Z,100214.09
2023-01-13T20:55:27.797Z,100212.06
2023-01-13T21:00:33.057Z,100213.09
2023-01-13T21:05:37.452Z,100225.38
2023-01-13T21:10:41.044Z,100256.06
2023-01-13T21:15:49.150Z,100242.44
2023-01-13T21:21:11.225Z,100263.28
2023-01-13T21:26:15.599Z,100277.53
2023-01-13T21:31:20.523Z,100269.81
2023-01-13T21:36:24.729Z,100290.16
2023-01-13T21:41:45.627Z,100295.38
2023-01-13T21:47:08.012Z,100301.59
2023-01-13T21:52:12.251Z,100306.41
2023-01-13T21:57:15.917Z,100308.44
2023-01-13T22:02:31.998Z,100322.72
2023-01-13T22:07:36.395Z,100325.09
2023-01-13T22:12:40.445Z,100324.63
2023-01-13T22:17:48.332Z,100339.16
2023-01-13T22:22:51.902Z,100334.81
2023-01-13T22:28:03.419Z,100353.66
2023-01-13T22:33:08.169Z,100362.00
2023-01-13T22:38:12.247Z,100362.06
2023-01-13T22:43:16.907Z,100381.34
2023-01-13T22:48:22.186Z,100375.63
2023-01-13T22:53:25.937Z,100388.75
2023-01-13T22:58:30.042Z,100400.88
2023-01-13T23:03:35.415Z,100398.44
2023-01-13T23:08:38.961Z,100406.22
2023-01-13T23:13:43.737Z,100420.72
2023-01-13T23:18:49.074Z,100416.06
2023-01-13T23:23:53.313Z,100404.19
2023-01-13T23:28:59.909Z,100417.63
2023-01-13T23:34:05.153Z,100433.09
2023-01-13T23:39:09.101Z,100434.47
2023-01-13T23:44:12.801Z,100432.59
2023-01-13T23:49:17.784Z,100436.75
2023-01-13T23:54:21.781Z,100431.47
2023-01-13T23:59:25.198Z,100437.94
